Time;durP1;ratioP1;P1;durP2;ratioP2;P2;SDS_P1;SDS_P2;PMS_P1;PMS_P2;Temp;Humidity;BMP_temperature;BMP_pressure;BME280_temperature;BME280_humidity;BME280_pressure;Samples;Min_cycle;Max_cycle;Signal;HPM_P1;HPM_P2
2024/02/15 00:01:42;;;;;;;8.18;3.58;;;;;;;-7.16;61.91;100780.69;4996085;28;20038;-51
2024/02/15 00:04:10;;;;;;;11.65;3.70;;;;;;;-6.90;62.14;100827.56;4997530;28;20091;-47
2024/02/15 00:06:37;;;;;;;6.57;2.75;;;;;;;-6.90;62.22;100820.84;4990210;28;20104;-50
2024/02/15 00:09:03;;;;;;;8.45;3.58;;;;;;;-6.90;62.31;100817.44;4976880;28;20037;-48
2024/02/15 00:11:29;;;;;;;7.97;3.15;;;;;;;-6.94;62.24;100826.53;4994057;28;20077;-52
2024/02/15 00:13:56;;;;;;;11.38;3.70;;;;;;;-7.57;61.93;100743.09;4997554;28;20079;-47
2024/02/15 00:16:22;;;;;;;6.28;2.22;;;;;;;-7.14;62.17;100804.38;4993327;28;20054;-53
2024/02/15 00:18:49;;;;;;;6.80;2.97;;;;;;;-7.23;62.27;100803.03;4995507;28;20095;-48
2024/02/15 00:21:15;;;;;;;7.80;3.15;;;;;;;-7.15;62.66;100817.81;4994503;28;20502;-48
2024/02/15 00:23:42;;;;;;;6.90;3.30;;;;;;;-7.23;62.78;100801.38;4994836;28;20136;-47
2024/02/15 00:26:09;;;;;;;7.13;3.33;;;;;;;-7.23;63.06;100808.06;4999592;28;20584;-47
2024/02/15 00:28:35;;;;;;;6.07;2.78;;;;;;;-7.39;62.11;100765.97;4985993;28;20134;-49
2024/02/15 00:31:01;;;;;;;7.75;2.85;;;;;;;-7.27;62.31;100810.41;4996129;28;20128;-49
2024/02/15 00:33:28;;;;;;;7.90;2.60;;;;;;;-7.17;62.54;100808.41;4996242;28;20657;-51
2024/02/15 00:35:54;;;;;;;4.63;2.05;;;;;;;-7.13;62.64;100805.25;4979626;28;20048;-48
2024/02/15 00:38:20;;;;;;;6.45;3.22;;;;;;;-7.41;62.60;100800.34;4993188;28;20037;-46
2024/02/15 00:40:46;;;;;;;9.43;3.10;;;;;;;-7.51;62.40;100788.00;4980183;28;20042;-49
2024/02/15 00:43:12;;;;;;;9.75;2.83;;;;;;;-7.50;62.34;100785.59;4995329;28;20042;-53
2024/02/15 00:45:40;;;;;;;4.65;2.45;;;;;;;-7.49;63.03;100783.94;4963724;28;20514;-50
2024/02/15 00:48:06;;;;;;;5.15;2.17;;;;;;;-7.82;62.69;100771.19;4995573;28;20085;-51
2024/02/15 00:50:32;;;;;;;9.43;3.10;;;;;;;-7.82;63.53;100783.78;4977181;28;20182;-51
2024/02/15 00:53:00;;;;;;;6.78;2.55;;;;;;;-7.80;62.77;100788.94;4971035;28;20057;-51
2024/02/15 00:55:26;;;;;;;4.18;2.00;;;;;;;-8.02;63.30;100749.00;4990673;28;20040;-47
2024/02/15 00:57:51;;;;;;;5.47;2.40;;;;;;;-7.73;63.14;100780.91;4995847;28;20152;-47
2024/02/15 01:00:18;;;;;;;10.20;3.08;;;;;;;-7.76;63.11;100771.53;4993804;28;20074;-53
2024/02/15 01:02:44;;;;;;;5.43;2.47;;;;;;;-7.93;63.49;100756.22;4997450;28;20043;-46
2024/02/15 01:05:10;;;;;;;11.73;3.50;;;;;;;-8.01;63.79;100744.84;4996817;28;20511;-49
2024/02/15 01:07:36;;;;;;;8.70;2.83;;;;;;;-7.69;63.50;100772.72;4994823;28;20083;-46
2024/02/15 01:10:03;;;;;;;10.38;3.22;;;;;;;-7.96;63.74;100729.16;4978391;28;20057;-54
2024/02/15 01:12:29;;;;;;;7.68;3.17;;;;;;;-7.54;63.41;100780.28;4963448;28;21018;-48
2024/02/15 01:14:56;;;;;;;8.43;2.45;;;;;;;-7.48;63.50;100781.47;4997152;28;20125;-50
2024/02/15 01:17:22;;;;;;;7.72;2.80;;;;;;;-7.41;64.04;100770.91;4996485;28;20447;-46
2024/02/15 01:19:48;;;;;;;7.75;3.05;;;;;;;-7.36;63.81;100789.72;4990210;28;20049;-52
2024/02/15 01:22:14;;;;;;;9.93;3.13;;;;;;;-7.36;64.10;100776.22;4989543;28;20054;-48
2024/02/15 01:24:42;;;;;;;7.07;2.72;;;;;;;-7.41;63.49;100783.56;4978672;28;20049;-48
2024/02/15 01:27:08;;;;;;;4.50;2.50;;;;;;;-7.49;63.60;100774.69;4995400;28;20049;-50
2024/02/15 01:29:35;;;;;;;9.00;3.17;;;;;;;-7.47;63.43;100784.88;4991302;28;20042;-47
2024/02/15 01:32:02;;;;;;;5.72;2.45;;;;;;;-7.57;63.30;100773.41;4956445;28;20080;-48
2024/02/15 01:34:29;;;;;;;9.77;3.03;;;;;;;-7.68;63.52;100782.03;4972921;28;20092;-48
2024/02/15 01:36:55;;;;;;;7.45;2.65;;;;;;;-7.74;63.56;100780.03;4972640;28;20030;-49
2024/02/15 01:39:21;;;;;;;8.77;2.17;;;;;;;-7.79;63.97;100772.97;4992488;28;20384;-48
2024/02/15 01:41:48;;;;;;;7.72;3.05;;;;;;;-8.14;63.86;100740.75;4991606;28;20034;-48
2024/02/15 01:44:14;;;;;;;6.63;2.47;;;;;;;-8.13;63.73;100733.28;4991586;28;20485;-50
2024/02/15 01:46:40;;;;;;;8.25;3.13;;;;;;;-8.00;64.14;100764.22;5000783;28;20042;-48
2024/02/15 01:49:07;;;;;;;8.23;3.05;;;;;;;-7.80;64.04;100779.69;4983325;28;20073;-48
2024/02/15 01:51:35;;;;;;;5.47;2.63;;;;;;;-7.78;64.21;100778.13;4991767;28;20038;-52
2024/02/15 01:54:01;;;;;;;6.50;3.03;;;;;;;-7.81;64.13;100787.19;5001134;28;20506;-52
2024/02/15 01:56:28;;;;;;;6.30;2.25;;;;;;;-7.88;64.01;100780.03;5003966;28;20823;-49
2024/02/15 01:58:54;;;;;;;10.02;2.80;;;;;;;-7.98;63.45;100777.78;4975194;28;20051;-47
2024/02/15 02:01:21;;;;;;;8.15;3.42;;;;;;;-8.09;64.39;100784.75;4990999;28;20056;-46
2024/02/15 02:03:47;;;;;;;7.53;2.95;;;;;;;-8.11;63.66;100788.00;5000216;28;20029;-48
2024/02/15 02:06:13;;;;;;;4.78;2.28;;;;;;;-8.08;64.15;100783.09;5005213;28;20053;-49
2024/02/15 02:08:39;;;;;;;9.15;2.92;;;;;;;-8.06;64.55;100784.06;4969593;28;20565;-46
2024/02/15 02:11:06;;;;;;;6.70;2.85;;;;;;;-8.09;63.66;100777.19;4994242;28;20066;-52
2024/02/15 02:13:32;;;;;;;9.73;3.60;;;;;;;-8.10;64.43;100780.47;5000118;28;20069;-48
2024/02/15 02:15:59;;;;;;;9.73;3.00;;;;;;;-7.91;64.42;100787.47;5002207;28;20270;-45
2024/02/15 02:18:25;;;;;;;8.00;3.65;;;;;;;-7.83;64.29;100781.19;4996601;28;20042;-49
2024/02/15 02:20:51;;;;;;;9.07;3.28;;;;;;;-7.92;64.05;100760.47;4998502;28;20414;-49
2024/02/15 02:23:19;;;;;;;8.32;3.20;;;;;;;-7.81;64.17;100782.16;5000349;28;20056;-49
2024/02/15 02:25:49;;;;;;;8.07;3.17;;;;;;;-7.74;64.13;100792.66;4980844;28;20046;-52
2024/02/15 02:28:16;;;;;;;9.93;3.25;;;;;;;-7.69;64.07;100787.00;4978407;28;20046;-51
2024/02/15 02:30:45;;;;;;;9.85;3.03;;;;;;;-7.77;64.44;100789.97;4998819;28;20038;-45
2024/02/15 02:33:18;;;;;;;8.98;3.75;;;;;;;-7.82;63.97;100793.88;4996181;28;20046;-47
2024/02/15 02:35:45;;;;;;;13.80;3.30;;;;;;;-7.92;64.58;100796.69;5006825;28;20041;-46
2024/02/15 02:38:13;;;;;;;10.85;3.58;;;;;;;-7.98;64.66;100786.25;4989513;28;20046;-46
2024/02/15 02:40:39;;;;;;;6.35;2.78;;;;;;;-7.96;65.13;100788.84;4988790;28;20050;-52
2024/02/15 02:43:05;;;;;;;6.85;2.97;;;;;;;-7.91;65.06;100785.81;4971465;28;20636;-47
2024/02/15 02:45:31;;;;;;;14.57;4.85;;;;;;;-7.89;65.23;100786.75;5000239;28;20470;-49
2024/02/15 02:47:57;;;;;;;8.68;3.83;;;;;;;-7.88;64.63;100791.03;4974404;28;20172;-47
2024/02/15 02:50:23;;;;;;;9.23;3.28;;;;;;;-7.74;65.03;100797.69;4998971;28;20551;-51
2024/02/15 02:52:50;;;;;;;8.55;2.97;;;;;;;-7.69;65.01;100800.47;4999928;28;20046;-50
2024/02/15 02:55:17;;;;;;;9.70;3.58;;;;;;;-7.65;64.88;100799.88;4980717;28;20050;-48
2024/02/15 02:57:44;;;;;;;10.27;3.63;;;;;;;-7.90;64.67;100753.88;4992281;28;20049;-49
2024/02/15 03:00:14;;;;;;;9.18;3.65;;;;;;;-7.69;64.55;100785.31;4975087;28;20050;-50
2024/02/15 03:02:40;;;;;;;9.60;3.10;;;;;;;-7.63;64.87;100795.78;4990122;28;20045;-48
2024/02/15 03:05:08;;;;;;;7.53;3.20;;;;;;;-7.79;64.97;100772.97;4974886;28;20077;-49
2024/02/15 03:07:36;;;;;;;8.25;2.85;;;;;;;-7.77;65.58;100801.72;4998563;28;20064;-48
2024/02/15 03:10:04;;;;;;;10.15;3.67;;;;;;;-7.77;66.61;100802.59;4962987;28;20038;-53
2024/02/15 03:12:31;;;;;;;9.65;3.47;;;;;;;-7.88;67.56;100801.13;4988791;28;20459;-49
2024/02/15 03:14:57;;;;;;;7.68;3.03;;;;;;;-8.25;67.34;100747.69;4989465;28;20045;-50
2024/02/15 03:17:26;;;;;;;8.25;3.28;;;;;;;-7.92;67.42;100795.81;4992151;28;20038;-47
2024/02/15 03:19:52;;;;;;;6.97;2.67;;;;;;;-7.86;67.23;100817.22;4967996;28;20575;-51
2024/02/15 03:22:18;;;;;;;6.75;3.33;;;;;;;-7.89;67.08;100814.50;5007062;28;20045;-50
2024/02/15 03:24:44;;;;;;;6.80;3.55;;;;;;;-7.82;66.69;100808.16;5007920;28;20049;-48
2024/02/15 03:27:10;;;;;;;6.95;3.05;;;;;;;-7.76;67.00;100816.97;4996152;28;20091;-51
2024/02/15 03:29:36;;;;;;;7.15;3.35;;;;;;;-7.78;66.53;100826.09;4994323;28;20046;-47
2024/02/15 03:32:03;;;;;;;9.50;3.65;;;;;;;-7.74;66.76;100817.88;4978308;28;20485;-42
2024/02/15 03:34:31;;;;;;;7.38;3.30;;;;;;;-7.79;66.97;100824.34;4994747;28;20056;-51
2024/02/15 03:36:57;;;;;;;10.27;3.45;;;;;;;-8.09;66.42;100791.44;4952303;28;20547;-52
2024/02/15 03:39:24;;;;;;;8.32;2.90;;;;;;;-7.96;65.94;100814.09;4997867;28;20038;-51
2024/02/15 03:41:50;;;;;;;5.60;2.67;;;;;;;-8.24;65.83;100763.69;4992938;28;20089;-48
2024/02/15 03:44:19;;;;;;;9.85;3.20;;;;;;;-7.90;65.44;100822.00;4991929;28;20042;-50
2024/02/15 03:46:50;;;;;;;10.77;3.37;;;;;;;-7.95;65.85;100823.38;4980032;28;20053;-53
2024/02/15 03:49:18;;;;;;;9.23;4.13;;;;;;;-7.99;65.98;100827.38;4977037;28;20915;-48
2024/02/15 03:51:49;;;;;;;11.65;3.20;;;;;;;-8.00;65.84;100817.19;4999302;28;20522;-55
2024/02/15 03:54:17;;;;;;;12.00;4.32;;;;;;;-7.93;65.92;100821.81;5001992;28;20145;-49
2024/02/15 03:56:53;;;;;;;8.90;3.83;;;;;;;-7.85;66.03;100826.50;4995833;28;20044;-49
2024/02/15 03:59:26;;;;;;;10.77;3.08;;;;;;;-7.85;66.19;100823.16;4977511;28;20520;-50
2024/02/15 04:01:53;;;;;;;5.85;2.53;;;;;;;-7.81;66.33;100825.06;4976263;28;20049;-51
2024/02/15 04:04:23;;;;;;;6.72;2.65;;;;;;;-8.15;66.10;100771.78;4996788;28;20053;-50
2024/02/15 04:06:50;;;;;;;15.82;4.15;;;;;;;-7.82;66.05;100829.22;4994110;28;20784;-51
2024/02/15 04:09:17;;;;;;;9.80;3.67;;;;;;;-7.94;65.90;100795.72;4998609;28;20042;-49
2024/02/15 04:11:46;;;;;;;9.38;3.03;;;;;;;-7.80;65.87;100832.69;5001255;28;20042;-51
2024/02/15 04:14:13;;;;;;;8.90;2.95;;;;;;;-8.06;65.84;100835.41;4992402;28;20053;-53
2024/02/15 04:16:39;;;;;;;5.45;2.58;;;;;;;-8.19;66.14;100833.81;4979017;28;20081;-49
2024/02/15 04:19:05;;;;;;;8.45;2.92;;;;;;;-8.27;66.53;100835.00;4990895;28;20044;-50
2024/02/15 04:21:33;;;;;;;7.20;3.28;;;;;;;-8.22;65.83;100835.28;4995707;28;20065;-50
2024/02/15 04:23:59;;;;;;;8.77;3.40;;;;;;;-8.36;65.63;100815.97;4990878;28;20430;-47
2024/02/15 04:26:26;;;;;;;6.50;3.00;;;;;;;-8.26;65.84;100833.34;4998334;28;20042;-52
2024/02/15 04:28:53;;;;;;;9.60;3.85;;;;;;;-8.56;65.82;100784.56;4999654;28;20045;-52
2024/02/15 04:31:26;;;;;;;9.38;2.95;;;;;;;-8.30;66.69;100827.28;4977244;28;20074;-52
2024/02/15 04:33:55;;;;;;;9.27;2.83;;;;;;;-8.36;65.42;100834.50;4983050;28;20525;-48
2024/02/15 04:36:25;;;;;;;;;;;;;;;-8.52;66.54;100826.81;4999179;28;20096;-51
2024/02/15 04:38:51;;;;;;;5.05;2.75;;;;;;;-8.42;66.01;100830.72;4998464;28;20415;-53
2024/02/15 04:41:19;;;;;;;7.07;3.20;;;;;;;-8.38;66.84;100837.72;4995438;28;20042;-50
2024/02/15 04:43:46;;;;;;;9.07;3.95;;;;;;;-8.43;66.26;100832.41;4993825;28;20034;-50
2024/02/15 04:46:14;;;;;;;9.40;2.65;;;;;;;-8.31;66.56;100832.25;4991250;28;20046;-48
2024/02/15 04:48:43;;;;;;;6.43;2.42;;;;;;;-8.31;66.27;100834.75;4999257;28;20038;-50
2024/02/15 04:51:10;;;;;;;;;;;;;;;-8.56;66.24;100797.16;5006553;28;20048;-50
2024/02/15 04:53:38;;;;;;;9.70;3.03;;;;;;;-8.25;66.23;100837.63;5005351;28;19921;-50
2024/02/15 04:56:13;;;;;;;7.10;3.20;;;;;;;-8.32;65.64;100833.88;5005786;28;20037;-49
2024/02/15 04:58:45;;;;;;;17.00;3.58;;;;;;;-8.22;66.07;100843.72;4989288;28;20121;-51
2024/02/15 05:01:17;;;;;;;8.80;3.42;;;;;;;-8.29;66.09;100835.69;4977592;28;20056;-49
2024/02/15 05:03:44;;;;;;;9.23;3.67;;;;;;;-8.33;65.99;100843.91;5005665;28;20050;-49
2024/02/15 05:06:12;;;;;;;9.73;3.63;;;;;;;-8.56;66.51;100817.31;4988930;28;20042;-49
2024/02/15 05:08:44;;;;;;;6.55;3.08;;;;;;;-8.35;66.42;100847.97;4990153;28;20132;-55
2024/02/15 05:11:19;;;;;;;7.00;3.05;;;;;;;-8.28;67.06;100843.38;4988114;28;20777;-53
2024/02/15 05:13:45;;;;;;;8.27;3.65;;;;;;;-8.27;66.64;100842.56;4988483;28;20046;-54
2024/02/15 05:16:12;;;;;;;9.48;3.00;;;;;;;-8.37;67.56;100824.34;5000829;28;20045;-52
2024/02/15 05:18:39;;;;;;;14.95;3.90;;;;;;;-8.16;67.17;100859.19;4971654;28;20514;-52
2024/02/15 05:21:09;;;;;;;5.82;2.45;;;;;;;-8.22;66.81;100868.94;4993601;28;20052;-51
2024/02/15 05:23:41;;;;;;;5.72;3.35;;;;;;;-8.24;66.75;100873.03;4994624;28;20426;-50
2024/02/15 05:26:08;;;;;;;9.88;3.40;;;;;;;-8.24;66.70;100877.19;4989142;28;20045;-50
2024/02/15 05:28:35;;;;;;;9.55;3.45;;;;;;;-8.24;66.85;100889.81;4991175;28;20038;-54
2024/02/15 05:31:20;;;;;;;10.23;3.92;;;;;;;-8.28;66.66;100886.25;4996735;28;20041;-55
2024/02/15 05:33:49;;;;;;;9.18;3.45;;;;;;;-8.35;66.42;100890.84;4998716;28;20390;-51
2024/02/15 05:36:20;;;;;;;9.20;2.63;;;;;;;-8.34;67.31;100890.06;4977578;28;20061;-54
2024/02/15 05:38:53;;;;;;;9.90;4.05;;;;;;;-8.22;67.82;100890.78;4979280;28;20050;-49
2024/02/15 05:41:20;;;;;;;8.98;3.53;;;;;;;-8.06;67.04;100901.00;4996582;28;20038;-52
2024/02/15 05:43:52;;;;;;;13.80;3.38;;;;;;;-8.01;67.43;100901.25;4997959;28;20042;-50
2024/02/15 05:46:21;;;;;;;10.00;3.55;;;;;;;-8.15;66.78;100895.38;4997987;28;20046;-49
2024/02/15 05:48:47;;;;;;;14.90;3.95;;;;;;;-8.02;67.27;100909.59;4967484;28;20112;-49
2024/02/15 05:51:12;;;;;;;8.20;4.07;;;;;;;-8.19;66.61;100870.78;4981774;28;20049;-51
2024/02/15 05:53:39;;;;;;;13.50;4.65;;;;;;;-7.94;67.14;100906.75;4979319;28;20038;-51
2024/02/15 05:56:06;;;;;;;13.73;4.18;;;;;;;-7.98;67.15;100901.44;4978740;28;20064;-49
2024/02/15 05:58:32;;;;;;;15.63;4.75;;;;;;;-8.05;67.02;100881.66;4994758;28;20141;-52
2024/02/15 06:01:02;;;;;;;13.02;3.95;;;;;;;-7.85;66.87;100914.84;4980574;28;20038;-53
2024/02/15 06:03:29;;;;;;;9.27;3.42;;;;;;;-7.93;66.71;100879.84;5000492;28;20641;-51
2024/02/15 06:05:58;;;;;;;8.90;3.55;;;;;;;-7.81;66.76;100911.75;5001111;28;20037;-49
2024/02/15 06:08:29;;;;;;;10.10;4.22;;;;;;;-7.78;66.81;100908.50;4993563;28;20052;-48
2024/02/15 06:10:55;;;;;;;10.32;4.32;;;;;;;-7.73;66.60;100909.63;4964107;28;20076;-48
2024/02/15 06:13:22;;;;;;;9.00;4.38;;;;;;;-7.75;66.77;100899.47;4997981;28;20073;-46
2024/02/15 06:15:52;;;;;;;13.45;4.25;;;;;;;-7.54;66.77;100917.50;4994575;28;20058;-50
2024/02/15 06:18:24;;;;;;;10.55;3.90;;;;;;;-7.65;66.56;100883.19;5000746;28;20548;-51
2024/02/15 06:20:50;;;;;;;10.05;4.63;;;;;;;-7.35;66.99;100920.28;5002042;28;20043;-50
2024/02/15 06:23:17;;;;;;;13.05;4.25;;;;;;;-7.44;66.08;100924.81;5004176;28;20048;-50
2024/02/15 06:25:43;;;;;;;10.95;4.55;;;;;;;-7.54;66.10;100927.59;4987089;28;20046;-50
2024/02/15 06:41:52;;;;;;;15.80;4.95;;;;;;;-7.66;66.20;100904.16;5001969;28;20046;-51
2024/02/15 06:44:19;;;;;;;14.25;4.88;;;;;;;-7.77;65.92;100885.00;4997650;28;20071;-49
2024/02/15 06:46:46;;;;;;;10.07;3.47;;;;;;;-7.50;66.08;100929.53;5003493;28;20046;-54
2024/02/15 06:49:12;;;;;;;9.02;2.90;;;;;;;-7.69;66.14;100926.69;5004511;28;20430;-48
2024/02/15 06:51:38;;;;;;;6.57;2.83;;;;;;;-7.81;65.31;100931.06;5000797;28;20104;-50
2024/02/15 06:54:04;;;;;;;6.57;3.03;;;;;;;-7.99;65.27;100938.41;4971217;28;20042;-52
2024/02/15 06:56:30;;;;;;;7.47;2.90;;;;;;;-8.19;65.91;100893.47;5005061;28;20038;-51
2024/02/15 06:58:56;;;;;;;7.60;3.42;;;;;;;-7.90;66.23;100928.84;5006725;28;20107;-50
2024/02/15 07:01:25;;;;;;;13.25;3.55;;;;;;;-7.90;66.04;100931.38;4997404;28;20045;-50
2024/02/15 07:03:51;;;;;;;9.10;4.00;;;;;;;-7.87;65.56;100940.78;4990110;28;20441;-51
2024/02/15 07:06:17;;;;;;;6.75;2.97;;;;;;;-7.89;65.45;100909.53;4971563;28;20674;-46
2024/02/15 07:08:43;;;;;;;9.15;3.15;;;;;;;-7.97;65.94;100904.06;4993677;28;20069;-44
2024/02/15 07:11:09;;;;;;;10.15;3.97;;;;;;;-7.61;65.69;100933.06;4977881;28;20053;-45
2024/02/15 07:13:38;;;;;;;7.55;3.13;;;;;;;-7.58;65.45;100927.31;4988458;28;20074;-43
2024/02/15 07:16:11;;;;;;;13.82;4.45;;;;;;;-7.58;65.32;100932.38;4996648;28;20124;-42
2024/02/15 07:18:37;;;;;;;5.00;3.05;;;;;;;-7.72;64.99;100919.84;5004162;28;20084;-43
2024/02/15 07:21:08;;;;;;;4.68;2.05;;;;;;;-7.74;65.34;100930.59;4989830;28;20092;-46
2024/02/15 07:23:34;;;;;;;6.97;2.88;;;;;;;-7.97;65.22;100903.19;5007627;28;20073;-45
2024/02/15 07:26:00;;;;;;;6.43;3.35;;;;;;;-7.78;65.00;100944.72;5004909;28;20129;-47
2024/02/15 07:28:26;;;;;;;7.10;2.92;;;;;;;-7.69;64.44;100943.53;5006958;28;20045;-46
2024/02/15 07:30:54;;;;;;;8.85;3.83;;;;;;;-7.79;64.25;100915.19;5001815;28;20053;-48
2024/02/15 07:33:22;;;;;;;10.60;3.67;;;;;;;-7.43;63.74;100946.75;4980872;28;20056;-44
2024/02/15 07:35:51;;;;;;;9.25;2.88;;;;;;;-7.24;64.17;100947.81;4970177;28;20053;-45
2024/02/15 07:38:17;;;;;;;10.00;3.60;;;;;;;-7.29;63.62;100938.31;4996401;28;20784;-44
2024/02/15 07:40:43;;;;;;;10.65;3.53;;;;;;;-7.20;63.34;100945.53;5002859;28;20046;-45
2024/02/15 07:43:10;;;;;;;11.20;3.75;;;;;;;-7.01;63.50;100940.72;4996328;28;20087;-44
2024/02/15 07:45:37;;;;;;;6.43;3.25;;;;;;;-6.80;63.47;100948.59;5003299;28;20041;-45
2024/02/15 07:48:04;;;;;;;6.63;3.35;;;;;;;-6.67;62.83;100957.75;4997647;28;20050;-44
2024/02/15 07:50:31;;;;;;;7.53;3.08;;;;;;;-7.01;62.40;100892.69;4999690;28;20041;-46
2024/02/15 07:52:56;;;;;;;9.23;3.28;;;;;;;-6.63;62.28;100952.94;4978304;28;20156;-47
2024/02/15 07:55:24;;;;;;;12.35;3.33;;;;;;;-6.44;62.06;100963.25;4980711;28;20461;-46
2024/02/15 07:57:51;;;;;;;7.80;3.67;;;;;;;-6.43;61.80;100933.75;4994412;28;20053;-46
2024/02/15 08:00:17;;;;;;;8.20;3.50;;;;;;;-6.60;61.43;100925.28;4997338;28;20041;-44
2024/02/15 08:02:43;;;;;;;12.18;3.10;;;;;;;-6.40;61.24;100964.28;4996764;28;20071;-47
2024/02/15 08:05:10;;;;;;;8.95;3.55;;;;;;;-6.35;60.81;100960.34;4999887;28;20506;-44
2024/02/15 08:07:44;;;;;;;8.07;2.90;;;;;;;-6.47;60.27;100965.63;4991505;28;20050;-44
2024/02/15 08:10:14;;;;;;;9.38;3.45;;;;;;;-6.80;60.78;100930.91;4996435;28;20037;-45
2024/02/15 08:12:44;;;;;;;8.02;3.80;;;;;;;-6.69;60.82;100957.66;4978534;28;20042;-43
2024/02/15 08:15:14;;;;;;;10.35;4.13;;;;;;;-6.54;60.94;100972.81;4980237;28;20529;-46
2024/02/15 08:17:40;;;;;;;;;;;;;;;-6.56;60.59;100969.31;4977487;28;20054;-47
2024/02/15 08:20:13;;;;;;;9.23;3.92;;;;;;;-6.53;60.79;100975.41;5003037;28;19932;-48
2024/02/15 08:22:40;;;;;;;7.10;3.20;;;;;;;-6.62;60.58;100977.44;4988589;28;20038;-47
2024/02/15 08:25:10;;;;;;;7.88;3.28;;;;;;;-6.72;60.43;100976.84;5004065;28;20641;-42
2024/02/15 08:27:44;;;;;;;8.65;3.67;;;;;;;-6.59;60.59;100969.13;5006466;28;20212;-48
2024/02/15 08:30:13;;;;;;;7.32;3.38;;;;;;;-6.77;60.18;100932.75;5006086;28;20034;-50
2024/02/15 08:32:39;;;;;;;9.35;3.17;;;;;;;-6.85;59.86;100971.09;5006106;28;20046;-46
2024/02/15 08:35:14;;;;;;;10.52;3.88;;;;;;;-6.88;60.43;100973.47;5001147;28;20041;-46
2024/02/15 08:37:42;;;;;;;5.97;2.55;;;;;;;-6.79;60.02;100964.66;4996382;28;20042;-45
2024/02/15 08:40:14;;;;;;;6.88;3.70;;;;;;;-6.88;60.23;100942.28;4996645;28;20123;-44
2024/02/15 08:42:41;;;;;;;13.52;4.50;;;;;;;-6.43;60.56;100974.22;4994832;28;20038;-44
2024/02/15 08:45:08;;;;;;;10.60;3.92;;;;;;;-6.29;60.16;100980.91;4992604;28;20049;-43
2024/02/15 08:47:42;;;;;;;10.98;3.63;;;;;;;-6.17;60.18;100971.44;4996885;28;20119;-44
2024/02/15 08:50:12;;;;;;;8.10;3.60;;;;;;;-6.07;60.15;100971.13;4993205;28;20046;-45
2024/02/15 08:52:39;;;;;;;9.63;3.85;;;;;;;-6.06;59.76;100977.94;4994753;28;20070;-46
2024/02/15 08:55:14;;;;;;;11.18;4.05;;;;;;;-6.12;59.92;100970.00;4993250;28;20076;-44
2024/02/15 08:57:46;;;;;;;16.05;4.13;;;;;;;-6.07;59.27;100980.41;4964127;28;20511;-45
2024/02/15 09:00:16;;;;;;;10.40;3.65;;;;;;;-6.56;59.01;100944.03;5005091;28;20068;-46
2024/02/15 09:02:45;;;;;;;6.35;3.63;;;;;;;-6.20;59.20;100978.88;4988676;28;20130;-46
2024/02/15 09:05:14;;;;;;;;;;;;;;;-6.13;59.30;100978.41;4997733;28;20069;-46
2024/02/15 09:07:42;;;;;;;10.48;3.95;;;;;;;-5.96;59.22;100966.63;4980329;28;19918;-45
2024/02/15 09:10:11;;;;;;;8.63;3.97;;;;;;;-6.11;59.21;100971.75;4952704;28;20045;-45
2024/02/15 09:12:39;;;;;;;16.80;4.30;;;;;;;-6.10;58.97;100973.50;4997311;28;20052;-43
2024/02/15 09:15:10;;;;;;;9.27;4.20;;;;;;;-6.28;59.05;100937.09;4981184;28;20042;-44
2024/02/15 09:17:39;;;;;;;8.77;3.55;;;;;;;-6.11;58.76;100970.88;4998409;28;20132;-46
2024/02/15 09:20:14;;;;;;;15.07;5.28;;;;;;;-6.23;58.57;100967.72;5004093;28;20073;-49
2024/02/15 09:22:49;;;;;;;6.45;3.10;;;;;;;-6.50;58.78;100975.59;4989843;28;20034;-46
2024/02/15 09:25:15;;;;;;;10.73;4.22;;;;;;;-6.61;59.49;100974.13;4997622;28;20045;-47
2024/02/15 09:27:42;;;;;;;10.75;3.20;;;;;;;-6.73;59.03;100978.50;4987501;28;20091;-47
2024/02/15 09:30:09;;;;;;;10.07;4.72;;;;;;;-6.81;58.99;100983.94;4996895;28;20178;-46
2024/02/15 09:32:36;;;;;;;12.55;4.22;;;;;;;-6.84;59.62;100979.56;4968473;28;20570;-47
2024/02/15 09:35:02;;;;;;;9.63;3.75;;;;;;;-6.72;60.06;100979.38;4994555;28;20550;-45
2024/02/15 09:37:29;;;;;;;14.65;4.43;;;;;;;-6.69;59.66;100977.88;4982186;28;20129;-44
2024/02/15 09:39:55;;;;;;;10.05;4.05;;;;;;;-6.78;59.45;100971.44;4990547;28;20041;-47
2024/02/15 09:42:21;;;;;;;11.27;4.22;;;;;;;-6.85;59.56;100971.09;4996125;28;20037;-48
2024/02/15 09:44:48;;;;;;;10.15;3.60;;;;;;;-7.12;59.46;100938.41;4995847;28;20686;-46
2024/02/15 09:47:15;;;;;;;10.80;3.63;;;;;;;-7.00;59.66;100975.31;4994037;28;20042;-44
2024/02/15 09:49:41;;;;;;;14.30;4.18;;;;;;;-6.90;59.70;100985.16;4977046;28;20053;-45
2024/02/15 09:52:11;;;;;;;15.55;5.38;;;;;;;-6.80;59.95;100976.41;4998284;28;20399;-44
2024/02/15 09:54:43;;;;;;;12.00;4.78;;;;;;;-6.62;59.81;100989.22;5002059;28;20046;-43
2024/02/15 09:57:13;;;;;;;16.05;4.63;;;;;;;-6.69;59.86;100945.00;4982319;28;20065;-43
2024/02/15 09:59:39;;;;;;;6.75;3.65;;;;;;;-6.59;59.26;100990.22;4998573;28;20093;-44
2024/02/15 10:02:10;;;;;;;8.48;3.63;;;;;;;-6.61;59.74;100986.78;4996880;28;20052;-43
2024/02/15 10:04:40;;;;;;;10.10;4.03;;;;;;;-6.92;59.47;100947.94;5001357;28;20548;-45
2024/02/15 10:07:08;;;;;;;12.05;4.78;;;;;;;-6.75;59.70;100990.19;4998267;28;20129;-44
2024/02/15 10:09:36;;;;;;;8.02;3.85;;;;;;;-6.94;59.78;100952.91;4979890;28;20057;-46
2024/02/15 10:12:06;;;;;;;8.77;4.15;;;;;;;-6.92;59.60;100993.44;4998542;28;20080;-45
2024/02/15 10:14:35;;;;;;;9.45;3.60;;;;;;;-7.04;59.85;100990.22;4999418;28;20064;-44
2024/02/15 10:17:11;;;;;;;11.57;4.18;;;;;;;-7.02;59.86;100997.13;4994020;28;20054;-45
2024/02/15 10:19:38;;;;;;;7.25;2.70;;;;;;;-7.03;59.74;101007.13;4997563;28;20165;-45
2024/02/15 10:22:08;;;;;;;8.25;3.42;;;;;;;-7.23;59.24;100989.97;4997180;28;20042;-45
2024/02/15 10:24:35;;;;;;;7.40;3.47;;;;;;;-7.23;59.44;100998.44;4981779;28;20056;-46
2024/02/15 10:27:06;;;;;;;9.35;2.92;;;;;;;-7.44;59.59;100965.22;4981300;28;20049;-52
2024/02/15 10:29:35;;;;;;;11.70;3.60;;;;;;;-7.16;59.80;100989.50;4994664;28;20026;-50
2024/02/15 10:32:02;;;;;;;9.75;3.85;;;;;;;-6.86;59.89;100999.72;5004674;28;20046;-50
2024/02/15 10:34:28;;;;;;;11.13;4.10;;;;;;;-6.57;59.99;101002.97;4976681;28;20089;-44
2024/02/15 10:36:57;;;;;;;7.43;4.03;;;;;;;-6.65;59.56;101005.09;4988612;28;20054;-45
2024/02/15 10:39:24;;;;;;;11.88;3.13;;;;;;;-6.96;59.48;100964.56;4989613;28;20104;-45
2024/02/15 10:41:52;;;;;;;10.55;4.25;;;;;;;-6.82;59.79;100965.34;4989622;28;20045;-44
2024/02/15 10:44:20;;;;;;;13.05;4.03;;;;;;;-6.54;59.61;100993.03;5000189;28;20041;-43
2024/02/15 10:46:51;;;;;;;11.90;4.72;;;;;;;-6.53;59.78;101004.88;5002308;28;20042;-44
2024/02/15 10:49:18;;;;;;;7.75;4.07;;;;;;;-6.96;59.62;100963.75;4995655;28;20042;-44
2024/02/15 10:51:44;;;;;;;11.05;3.97;;;;;;;-6.74;59.32;100999.50;4999791;28;20081;-44
2024/02/15 10:54:18;;;;;;;10.88;3.55;;;;;;;-6.72;59.48;101004.66;4995775;28;20050;-43
2024/02/15 10:56:48;;;;;;;12.38;4.50;;;;;;;-6.61;59.63;100986.78;4982174;28;20484;-44
2024/02/15 10:59:22;;;;;;;12.70;4.80;;;;;;;-6.49;59.26;101004.28;4977908;28;20132;-44
2024/02/15 11:01:53;;;;;;;14.63;4.43;;;;;;;-6.61;59.40;101004.47;4948369;28;20100;-45
2024/02/15 11:04:25;;;;;;;13.63;4.30;;;;;;;-6.58;59.38;100993.63;4989527;28;20067;-42
2024/02/15 11:06:52;;;;;;;10.15;3.75;;;;;;;-6.53;59.31;100990.56;4996829;28;20081;-43
2024/02/15 11:09:19;;;;;;;13.05;4.80;;;;;;;-6.52;59.18;100993.97;4986574;28;20073;-43
2024/02/15 11:11:46;;;;;;;12.15;4.00;;;;;;;-6.46;59.20;100995.19;4986615;28;20046;-46
2024/02/15 11:14:31;;;;;;;10.25;3.85;;;;;;;-6.36;59.08;101001.63;4973395;28;20038;-43
2024/02/15 11:16:58;;;;;;;25.25;7.55;;;;;;;-6.46;59.02;100997.72;5006616;28;20080;-45
2024/02/15 11:19:40;;;;;;;16.77;5.63;;;;;;;-6.40;59.15;100999.72;4970396;28;20415;-44
2024/02/15 11:22:10;;;;;;;18.83;6.05;;;;;;;-6.32;59.30;100998.44;4999190;28;20049;-45
2024/02/15 11:24:37;;;;;;;11.05;4.07;;;;;;;-6.31;59.08;101005.25;4964691;28;20136;-43
2024/02/15 11:27:04;;;;;;;9.68;4.43;;;;;;;-6.49;58.68;101007.66;4967351;28;20181;-45
2024/02/15 11:29:49;;;;;;;13.23;4.43;;;;;;;-6.56;59.00;101004.72;4979658;28;20041;-44
2024/02/15 11:32:34;;;;;;;13.52;4.35;;;;;;;-6.70;58.74;101013.22;4993530;28;20049;-44
2024/02/15 11:35:11;;;;;;;14.07;4.40;;;;;;;-6.92;59.34;100976.63;4991426;28;20097;-46
2024/02/15 11:37:49;;;;;;;11.48;4.70;;;;;;;-6.73;58.88;101015.56;4979946;28;20053;-44
2024/02/15 11:40:24;;;;;;;10.18;4.47;;;;;;;-6.68;59.09;101019.22;4992336;28;20077;-45
2024/02/15 11:42:53;;;;;;;11.50;4.32;;;;;;;-6.64;59.38;101011.00;4998680;28;20052;-44